Time;durP1;ratioP1;P1;durP2;ratioP2;P2;SDS_P1;SDS_P2;PMS_P1;PMS_P2;Temp;Humidity;BMP_temperature;BMP_pressure;BME280_temperature;BME280_humidity;BME280_pressure;Samples;Min_cycle;Max_cycle;Signal;HPM_P1;HPM_P2
2022/03/20 00:04:42;;;;;;;45.50;22.43;;;;;;;1.74;63.07;103588.91;10586749;28;20195;-64
2022/03/20 00:09:46;;;;;;;54.60;23.30;;;;;;;1.71;63.10;103587.78;10586391;28;20537;-65
2022/03/20 00:14:49;;;;;;;52.70;22.53;;;;;;;1.67;64.53;103586.63;10586487;28;20195;-63
2022/03/20 00:19:54;;;;;;;48.60;22.30;;;;;;;1.63;64.42;103589.72;10205463;28;10000477;-66
2022/03/20 00:24:59;;;;;;;43.27;22.43;;;;;;;1.67;65.34;103588.28;10546828;28;20211;-63
2022/03/20 00:30:02;;;;;;;46.80;24.27;;;;;;;1.60;66.09;103584.38;10546644;28;20220;-63
2022/03/20 00:35:07;;;;;;;54.97;25.93;;;;;;;1.62;66.36;103587.06;10546576;28;20684;-64
2022/03/20 00:40:11;;;;;;;50.77;24.77;;;;;;;1.52;67.67;103580.31;10546084;28;20231;-63
2022/03/20 00:45:14;;;;;;;51.17;25.07;;;;;;;1.51;68.92;103593.00;10546067;28;20227;-64
2022/03/20 00:50:19;;;;;;;53.53;27.53;;;;;;;1.53;67.97;103584.66;10545937;28;20537;-65
2022/03/20 00:55:22;;;;;;;54.30;27.57;;;;;;;1.50;68.64;103583.53;10545551;28;20215;-64
2022/03/20 01:00:26;;;;;;;58.57;27.37;;;;;;;1.37;69.54;103591.91;10545610;28;20311;-68
2022/03/20 01:05:30;;;;;;;61.43;27.07;;;;;;;1.38;68.58;103591.13;10545222;28;20237;-64
2022/03/20 01:10:33;;;;;;;59.07;25.90;;;;;;;1.36;69.03;103596.91;10542083;28;20631;-66
2022/03/20 01:15:37;;;;;;;50.97;25.83;;;;;;;1.23;68.38;103595.03;10541793;28;20219;-67
2022/03/20 01:20:42;;;;;;;57.63;27.40;;;;;;;1.27;67.84;103599.66;10540743;28;20223;-66
2022/03/20 01:25:45;;;;;;;54.60;25.03;;;;;;;1.18;68.32;103597.25;10541479;28;20226;-63
2022/03/20 01:30:48;;;;;;;57.13;25.73;;;;;;;1.17;68.49;103594.56;10541043;28;20223;-65
2022/03/20 01:35:53;;;;;;;54.37;25.63;;;;;;;1.08;68.85;103598.97;10541484;28;20306;-66
2022/03/20 01:40:56;;;;;;;53.97;24.13;;;;;;;1.03;68.98;103592.59;10540982;28;20229;-65
2022/03/20 01:46:00;;;;;;;49.10;24.87;;;;;;;0.97;68.04;103592.97;10540667;28;20230;-66
2022/03/20 01:51:05;;;;;;;55.90;23.60;;;;;;;1.00;66.34;103589.78;10540419;28;20227;-64
2022/03/20 01:56:08;;;;;;;56.77;25.30;;;;;;;0.95;66.53;103601.28;10540278;28;20522;-65
2022/03/20 02:01:12;;;;;;;53.73;26.40;;;;;;;0.92;63.87;103598.50;10540035;28;20614;-64
2022/03/20 02:06:20;;;;;;;55.43;26.23;;;;;;;0.88;65.38;103601.59;10539979;28;20657;-65
2022/03/20 02:11:26;;;;;;;57.10;26.23;;;;;;;0.86;64.24;103596.31;10539719;28;20856;-67
2022/03/20 02:16:29;;;;;;;55.00;26.00;;;;;;;0.84;64.62;103599.53;10539675;28;20348;-65
2022/03/20 02:21:39;;;;;;;53.80;25.40;;;;;;;0.88;64.37;103597.34;10499993;28;20215;-62
2022/03/20 02:26:42;;;;;;;58.83;26.27;;;;;;;0.83;65.16;103590.06;10500633;28;20219;-63
2022/03/20 02:31:45;;;;;;;55.27;26.17;;;;;;;0.69;63.99;103586.41;10500360;28;20232;-66
2022/03/20 02:36:50;;;;;;;53.17;25.53;;;;;;;0.60;64.87;103584.78;10500420;28;20329;-67
2022/03/20 02:41:55;;;;;;;59.17;26.83;;;;;;;0.62;65.34;103581.56;10498883;28;20234;-73
2022/03/20 02:47:02;;;;;;;60.57;26.03;;;;;;;0.60;65.54;103592.44;10497550;28;20216;-67
2022/03/20 02:52:08;;;;;;;58.07;24.83;;;;;;;0.56;64.58;103587.84;10497165;28;20224;-63
2022/03/20 02:57:11;;;;;;;51.73;25.10;;;;;;;0.44;66.37;103597.06;10497157;28;20226;-62
2022/03/20 03:02:14;;;;;;;57.03;26.73;;;;;;;0.34;66.12;103594.53;10496773;28;20234;-66
2022/03/20 03:07:19;;;;;;;65.13;27.37;;;;;;;0.34;66.32;103587.75;10496569;28;20606;-66
2022/03/20 03:12:22;;;;;;;57.30;26.70;;;;;;;0.22;66.36;103596.97;10496743;28;20224;-67
2022/03/20 03:17:28;;;;;;;54.03;26.07;;;;;;;0.23;65.34;103597.84;10511412;28;20215;-68
2022/03/20 03:22:36;;;;;;;62.30;26.17;;;;;;;0.18;65.01;103599.13;10580292;28;20232;-66
2022/03/20 03:27:39;;;;;;;62.73;26.13;;;;;;;0.27;64.15;103594.78;10580469;28;20214;-65
2022/03/20 03:32:42;;;;;;;55.23;25.83;;;;;;;0.25;63.90;103591.19;10562412;28;20238;-66
2022/03/20 03:37:47;;;;;;;51.77;25.13;;;;;;;0.25;64.71;103591.19;10582513;28;20229;-67
2022/03/20 03:42:50;;;;;;;49.80;23.10;;;;;;;0.24;64.55;103590.31;10583329;28;20264;-65
2022/03/20 03:47:54;;;;;;;51.17;23.50;;;;;;;0.18;64.54;103594.91;10589452;28;20525;-66
2022/03/20 03:52:58;;;;;;;49.53;22.57;;;;;;;0.17;63.80;103592.22;10590706;28;20245;-66
2022/03/20 03:58:01;;;;;;;49.30;23.30;;;;;;;0.17;64.29;103590.59;10590335;28;20224;-70
2022/03/20 04:03:05;;;;;;;47.20;21.73;;;;;;;0.17;63.67;103598.25;10590191;28;20290;-64
2022/03/20 04:08:10;;;;;;;52.93;23.07;;;;;;;0.02;64.75;103606.28;10590119;28;20279;-65
2022/03/20 04:13:13;;;;;;;55.50;24.50;;;;;;;-0.10;65.72;103614.69;10589969;28;20232;-67
2022/03/20 04:18:16;;;;;;;52.00;23.00;;;;;;;-0.16;65.21;103609.06;10589535;28;20544;-64
2022/03/20 04:23:45;;;;;;;49.47;22.17;;;;;;;-0.14;66.37;103606.66;10589557;28;20225;-65
2022/03/20 04:28:50;;;;;;;54.03;23.27;;;;;;;-0.14;66.69;103604.09;10589388;28;20297;-66
2022/03/20 04:33:55;;;;;;;53.57;22.33;;;;;;;-0.16;65.92;103603.97;10588955;28;20305;-68
2022/03/20 04:39:00;;;;;;;46.43;22.83;;;;;;;-0.23;65.99;103599.09;10588985;28;20234;-66
2022/03/20 04:44:06;;;;;;;47.90;22.27;;;;;;;-0.22;66.09;103607.63;10589072;28;20331;-69
2022/03/20 04:59:56;;;;;;;51.57;24.37;;;;;;;-0.43;66.61;103627.09;10588042;28;20640;-66
2022/03/20 05:04:59;;;;;;;48.77;22.83;;;;;;;-0.40;66.90;103626.50;10587540;28;20214;-64
2022/03/20 05:15:26;;;;;;;52.97;22.07;;;;;;;-0.25;65.84;103626.16;10587570;28;20228;-64
2022/03/20 05:20:29;;;;;;;51.23;22.90;;;;;;;-0.22;66.20;103630.59;10587351;28;20225;-66
2022/03/20 05:25:34;;;;;;;47.33;22.23;;;;;;;-0.18;66.77;103637.75;10586840;28;20222;-65
2022/03/20 05:30:37;;;;;;;49.30;24.53;;;;;;;-0.06;66.68;103642.25;10586921;28;20225;-65
2022/03/20 05:35:42;;;;;;;51.67;22.63;;;;;;;-0.06;65.61;103644.81;10586346;28;20545;-66
2022/03/20 05:40:47;;;;;;;54.03;23.77;;;;;;;-0.02;67.01;103654.50;10586236;28;20244;-68
2022/03/20 05:45:50;;;;;;;48.30;23.80;;;;;;;0.08;66.63;103660.38;10586111;28;20229;-65
2022/03/20 05:50:53;;;;;;;45.53;21.47;;;;;;;0.21;66.55;103656.44;10585813;28;20214;-63
2022/03/20 06:01:15;;;;;;;45.03;20.90;;;;;;;0.76;62.52;103667.91;10552256;28;20226;-66
2022/03/20 06:06:18;;;;;;;42.73;20.53;;;;;;;0.89;62.35;103675.84;10585414;28;20339;-65
2022/03/20 06:11:23;;;;;;;43.37;19.93;;;;;;;0.99;62.71;103680.03;10584750;28;20662;-66
2022/03/20 06:16:26;;;;;;;44.27;20.70;;;;;;;1.07;61.90;103676.47;10585042;28;20674;-64
2022/03/20 06:21:30;;;;;;;38.90;19.30;;;;;;;1.12;60.62;103683.69;10584811;28;20278;-65
2022/03/20 06:26:35;;;;;;;41.37;19.73;;;;;;;1.31;59.63;103683.53;10584822;28;20225;-64
2022/03/20 06:31:39;;;;;;;40.43;17.83;;;;;;;1.33;58.98;103684.53;10583670;28;20225;-65
2022/03/20 06:36:42;;;;;;;38.20;17.97;;;;;;;1.49;59.56;103687.56;10582007;28;20317;-67
2022/03/20 06:41:47;;;;;;;41.13;17.77;;;;;;;1.67;60.49;103691.59;10584482;28;20214;-62
2022/03/20 06:46:50;;;;;;;31.47;16.53;;;;;;;1.78;58.11;103680.50;10584470;28;20539;-65
2022/03/20 06:51:53;;;;;;;34.63;16.60;;;;;;;1.95;57.68;103682.72;10584399;28;20286;-68
2022/03/20 06:56:58;;;;;;;31.40;14.40;;;;;;;2.08;55.50;103685.47;10583985;28;20228;-64
2022/03/20 07:02:01;;;;;;;31.47;14.90;;;;;;;2.10;53.93;103689.03;10584000;28;20233;-70
2022/03/20 07:07:05;;;;;;;35.77;15.27;;;;;;;2.28;53.25;103682.75;10583973;28;20690;-65
2022/03/20 07:12:11;;;;;;;31.53;15.00;;;;;;;2.46;52.23;103695.16;10583687;28;20362;-69
2022/03/20 07:17:19;;;;;;;33.90;14.67;;;;;;;2.57;52.23;103687.53;10584608;28;20235;-63
2022/03/20 07:22:23;;;;;;;33.07;15.40;;;;;;;2.79;51.59;103696.06;10589996;28;20215;-63
2022/03/20 07:32:49;;;;;;;27.77;13.47;;;;;;;3.10;50.15;103678.69;10591579;28;20223;-64
2022/03/20 07:37:52;;;;;;;29.03;14.20;;;;;;;3.30;49.87;103663.03;10591009;28;20230;-65
2022/03/20 07:42:57;;;;;;;30.67;15.23;;;;;;;3.46;49.47;103668.50;10591070;28;20544;-64
2022/03/20 07:48:00;;;;;;;29.87;15.10;;;;;;;3.65;47.66;103670.69;10591066;28;20301;-70
2022/03/20 07:53:08;;;;;;;25.30;12.80;;;;;;;3.80;48.17;103659.81;10590935;28;20292;-63
2022/03/20 07:58:13;;;;;;;26.20;13.53;;;;;;;3.94;47.97;103663.34;10590580;28;20221;-66
2022/03/20 08:03:19;;;;;;;34.87;16.70;;;;;;;4.17;47.44;103673.53;10588536;28;20223;-63
2022/03/20 08:08:22;;;;;;;108.67;54.40;;;;;;;4.79;46.25;103672.63;10587400;28;20250;-66
2022/03/20 08:13:31;;;;;;;33.20;15.50;;;;;;;4.93;46.24;103667.63;10586674;28;20231;-63
2022/03/20 08:18:35;;;;;;;25.90;12.53;;;;;;;5.10;45.76;103659.31;10586484;28;20227;-67
2022/03/20 08:23:39;;;;;;;23.07;11.23;;;;;;;5.36;45.30;103656.72;10586323;28;20537;-63
2022/03/20 08:28:44;;;;;;;25.80;13.33;;;;;;;5.58;44.68;103648.66;10585996;28;20232;-63
2022/03/20 08:33:47;;;;;;;19.23;9.50;;;;;;;5.81;43.39;103654.47;10585603;28;20235;-64
2022/03/20 08:38:50;;;;;;;158.47;83.03;;;;;;;6.17;41.70;103648.09;10585567;28;20218;-64
2022/03/20 08:43:57;;;;;;;14.87;7.90;;;;;;;6.43;41.54;103647.09;10226291;28;10000007;-65
2022/03/20 08:49:06;;;;;;;12.40;7.13;;;;;;;6.59;40.75;103637.75;10542676;28;20709;-68
2022/03/20 08:54:11;;;;;;;14.30;6.10;;;;;;;6.99;38.55;103625.44;10543084;28;20279;-67
2022/03/20 08:59:16;;;;;;;12.47;5.90;;;;;;;7.26;37.94;103628.69;10542440;28;20215;-64
2022/03/20 09:04:19;;;;;;;13.57;5.50;;;;;;;7.56;37.55;103635.56;10542656;28;20251;-65
2022/03/20 09:09:23;;;;;;;10.73;5.00;;;;;;;7.72;35.87;103620.94;10542065;28;20291;-66
2022/03/20 09:14:27;;;;;;;51.43;15.97;;;;;;;7.93;35.13;103614.34;10524160;28;20219;-65
2022/03/20 09:19:31;;;;;;;13.20;5.37;;;;;;;8.46;35.83;103621.41;10541860;28;20201;-64
2022/03/20 09:24:35;;;;;;;12.10;5.53;;;;;;;8.84;36.22;103613.84;10541522;28;20278;-68
2022/03/20 09:29:40;;;;;;;10.27;4.80;;;;;;;9.35;35.39;103609.47;10541500;28;20195;-66
2022/03/20 09:34:43;;;;;;;10.77;4.90;;;;;;;9.75;34.91;103603.53;10541098;28;20211;-65
2022/03/20 09:39:47;;;;;;;12.50;5.67;;;;;;;10.30;34.75;103593.06;10540662;28;20676;-67
2022/03/20 09:44:53;;;;;;;11.00;6.57;;;;;;;10.68;33.73;103592.09;10539267;28;20515;-67
2022/03/20 09:49:57;;;;;;;11.87;6.03;;;;;;;11.20;32.98;103587.28;10540540;28;20550;-63
2022/03/20 09:55:06;;;;;;;10.97;5.93;;;;;;;11.82;33.34;103584.47;10540297;28;20215;-69
2022/03/20 10:00:14;;;;;;;10.80;5.10;;;;;;;12.36;31.93;103570.78;10540228;28;20586;-62
2022/03/20 10:05:20;;;;;;;13.43;6.82;;;;;;;12.90;32.14;103577.81;10538566;28;20526;-64
2022/03/20 10:10:25;;;;;;;10.60;5.63;;;;;;;13.37;31.10;103574.09;10540127;28;20198;-70
2022/03/20 10:15:32;;;;;;;13.97;7.00;;;;;;;13.71;31.39;103561.19;10539779;28;20211;-69
2022/03/20 10:20:44;;;;;;;10.20;5.50;;;;;;;14.07;30.22;103556.06;10539640;28;20175;-70
2022/03/20 10:25:51;;;;;;;11.57;5.77;;;;;;;14.18;29.33;103544.19;10540229;28;20188;-68
2022/03/20 10:31:00;;;;;;;12.13;6.10;;;;;;;14.49;29.69;103536.31;10539451;28;20207;-65
2022/03/20 10:36:12;;;;;;;10.17;5.70;;;;;;;14.86;29.13;103531.13;10539066;28;20663;-66
2022/03/20 10:41:20;;;;;;;12.83;6.23;;;;;;;15.09;29.55;103543.00;10538914;28;20264;-64
2022/03/20 10:46:27;;;;;;;12.10;6.40;;;;;;;15.35;29.02;103535.69;10566853;28;20191;-61
2022/03/20 10:51:39;;;;;;;11.60;5.30;;;;;;;15.60;28.34;103548.50;10581096;28;20212;-63
2022/03/20 10:56:53;;;;;;;13.90;7.33;;;;;;;15.87;28.61;103536.84;10587456;28;20221;-65
2022/03/20 11:01:58;;;;;;;11.23;5.87;;;;;;;16.70;27.26;103529.56;10589374;28;20635;-65
2022/03/20 11:07:07;;;;;;;11.97;6.67;;;;;;;18.04;24.77;103500.66;10590591;28;20290;-64
2022/03/20 11:12:15;;;;;;;12.60;6.60;;;;;;;18.03;23.43;103501.50;10589057;28;20195;-65
2022/03/20 11:17:22;;;;;;;23.73;13.00;;;;;;;18.50;25.10;103494.06;10589014;28;20224;-69
2022/03/20 11:22:26;;;;;;;11.97;6.60;;;;;;;19.01;24.04;103483.88;10588573;28;20523;-69
2022/03/20 11:27:31;;;;;;;9.53;5.97;;;;;;;19.97;23.77;103464.84;10588342;28;20199;-70
2022/03/20 11:32:38;;;;;;;13.77;8.23;;;;;;;20.79;22.77;103454.25;10588351;28;20527;-68
2022/03/20 11:37:43;;;;;;;11.05;6.22;;;;;;;20.99;23.04;103457.72;10587872;28;20233;-67
2022/03/20 11:42:46;;;;;;;11.93;6.50;;;;;;;21.56;23.00;103447.75;10588004;28;20297;-65
2022/03/20 11:47:52;;;;;;;13.45;6.88;;;;;;;21.64;21.79;103437.16;10547284;28;20575;-67
2022/03/20 11:53:00;;;;;;;9.90;5.97;;;;;;;22.13;21.51;103435.00;10545155;28;20176;-65
2022/03/20 11:58:06;;;;;;;;;;;;;;;21.64;21.49;103423.94;10546064;28;20545;-62
2022/03/20 12:03:33;;;;;;;;;;;;;;;22.22;21.99;103413.78;10545368;28;19924;-66
2022/03/20 12:08:51;;;;;;;;;;;;;;;22.57;21.46;103412.53;10544551;28;19930;-64
2022/03/20 12:14:02;;;;;;;;;;;;;;;22.83;21.20;103404.31;10543647;28;19919;-64
2022/03/20 12:19:08;;;;;;;;;;;;;;;23.04;21.58;103397.88;10541148;28;20014;-66
2022/03/20 12:24:26;;;;;;;;;;;;;;;23.28;20.52;103386.97;10544403;28;19920;-66
2022/03/20 12:29:32;;;;;;;;;;;;;;;24.06;20.13;103387.50;10543052;28;19920;-66
2022/03/20 12:34:36;;;;;;;;;;;;;;;25.50;18.63;103372.97;10543333;28;20006;-70
2022/03/20 12:39:49;;;;;;;;;;;;;;;23.32;20.37;103364.78;10526118;28;19920;-71
2022/03/20 12:44:53;;;;;;;;;;;;;;;21.92;22.07;103375.22;10526234;28;20007;-69
2022/03/20 12:50:01;;;;;;;10.25;6.70;;;;;;;21.87;21.52;103368.22;10537900;28;20289;-68
2022/03/20 12:55:07;;;;;;;10.27;6.97;;;;;;;21.06;22.46;103361.72;10541340;28;20246;-66
2022/03/20 13:00:15;;;;;;;12.98;5.75;;;;;;;20.62;21.96;103365.41;10541653;28;20269;-65
2022/03/20 13:05:18;;;;;;;11.13;6.63;;;;;;;20.20;21.96;103364.66;10542608;28;20239;-66
2022/03/20 13:10:26;;;;;;;11.10;5.85;;;;;;;20.05;22.46;103354.09;10524092;28;20303;-66
2022/03/20 13:15:45;;;;;;;8.63;5.18;;;;;;;19.53;23.34;103361.16;10541191;28;20714;-67
2022/03/20 13:20:49;;;;;;;10.52;6.13;;;;;;;19.30;22.26;103353.22;10520291;28;20207;-66
2022/03/20 13:25:55;;;;;;;8.95;5.57;;;;;;;19.19;23.67;103344.34;10501194;28;20365;-66
2022/03/20 13:31:11;;;;;;;10.73;6.07;;;;;;;19.08;23.45;103346.09;10501816;28;20258;-68
2022/03/20 13:36:14;;;;;;;10.13;5.50;;;;;;;18.74;23.23;103343.34;10501871;28;20657;-66
2022/03/20 13:41:21;;;;;;;9.37;5.77;;;;;;;18.57;23.08;103335.38;10502089;28;20692;-69
2022/03/20 13:46:28;;;;;;;9.60;5.85;;;;;;;18.39;22.91;103327.38;10500921;28;20294;-66
2022/03/20 13:51:32;;;;;;;;;;;;;;;18.00;23.01;103325.38;10501091;28;20444;-68
2022/03/20 13:56:36;;;;;;;;;;;;;;;17.85;23.98;103322.66;10501728;28;19920;-66
2022/03/20 14:01:44;;;;;;;;;;;;;;;17.76;24.03;103308.53;10501438;28;20334;-67
2022/03/20 14:06:49;;;;;;;;;;;;;;;17.36;25.10;103304.66;10501557;28;19930;-67
2022/03/20 14:11:52;;;;;;;;;;;;;;;17.09;24.53;103296.53;10501482;28;19957;-68
2022/03/20 14:16:58;;;;;;;;;;;;;;;16.86;25.70;103287.56;10525245;28;19920;-66
2022/03/20 14:22:02;;;;;;;;;;;;;;;16.81;25.26;103287.50;10541556;28;20248;-67
2022/03/20 14:27:08;;;;;;;;;;;;;;;16.67;26.09;103282.97;10542714;28;20258;-67
2022/03/20 14:43:09;;;;;;;13.00;6.10;;;;;;;14.69;26.46;103281.47;10542311;28;20238;-68
2022/03/20 14:48:15;;;;;;;10.63;5.97;;;;;;;14.38;27.23;103284.28;10541703;28;20239;-67
2022/03/20 14:53:22;;;;;;;10.10;5.77;;;;;;;14.14;27.16;103283.72;10541062;28;20307;-69
2022/03/20 14:58:26;;;;;;;9.23;5.50;;;;;;;13.83;26.92;103285.66;10541645;28;20223;-68
2022/03/20 15:03:30;;;;;;;14.07;5.40;;;;;;;13.68;27.26;103277.44;10540475;28;20212;-71
2022/03/20 15:14:06;;;;;;;11.17;5.40;;;;;;;13.06;28.86;103275.03;10540722;28;20288;-69
2022/03/20 15:19:13;;;;;;;16.97;6.93;;;;;;;12.96;28.34;103266.88;10540997;28;20215;-68
2022/03/20 15:24:16;;;;;;;11.27;5.63;;;;;;;12.95;28.36;103271.19;10540552;28;20230;-67
2022/03/20 15:29:20;;;;;;;10.73;5.33;;;;;;;12.81;28.43;103275.16;10540121;28;20229;-67
2022/03/20 15:34:26;;;;;;;18.27;8.10;;;;;;;12.77;29.34;103273.28;10500430;28;20255;-69
2022/03/20 15:39:30;;;;;;;11.80;5.43;;;;;;;12.67;29.19;103272.16;10497084;28;20240;-71
2022/03/20 15:44:33;;;;;;;9.23;5.07;;;;;;;13.25;27.93;103273.75;10506271;28;20677;-70
2022/03/20 15:49:38;;;;;;;11.93;5.43;;;;;;;14.11;27.69;103265.38;10506587;28;20217;-67
2022/03/20 15:54:41;;;;;;;17.40;8.47;;;;;;;13.47;28.02;103271.72;10506278;28;20537;-66
2022/03/20 15:59:46;;;;;;;25.97;11.30;;;;;;;12.92;28.60;103270.22;10506440;28;20628;-68
2022/03/20 16:04:52;;;;;;;14.67;6.30;;;;;;;12.60;29.93;103265.00;10506226;28;20396;-68
2022/03/20 16:09:56;;;;;;;9.40;5.07;;;;;;;12.41;29.64;103272.25;10506029;28;20216;-68
2022/03/20 16:14:59;;;;;;;13.80;5.50;;;;;;;12.14;31.17;103272.34;10505449;28;20224;-72
2022/03/20 16:20:04;;;;;;;13.83;5.90;;;;;;;11.89;30.22;103262.00;10505917;28;20318;-65
2022/03/20 16:30:29;;;;;;;12.10;5.17;;;;;;;11.44;30.76;103260.53;10505112;28;20222;-69
2022/03/20 16:35:34;;;;;;;13.90;5.60;;;;;;;11.32;30.78;103260.13;10515890;28;20245;-68
2022/03/20 16:40:38;;;;;;;15.47;6.77;;;;;;;11.03;32.77;103255.63;10546751;28;20669;-71
2022/03/20 16:45:46;;;;;;;15.57;6.87;;;;;;;10.79;32.77;103263.47;10546475;28;20654;-67
2022/03/20 16:50:52;;;;;;;14.10;5.87;;;;;;;10.73;33.24;103257.16;10546348;28;20242;-70
2022/03/20 16:55:55;;;;;;;11.23;4.83;;;;;;;10.54;32.44;103257.34;10543765;28;20227;-70
2022/03/20 17:00:58;;;;;;;14.60;6.27;;;;;;;10.38;33.17;103264.56;10542576;28;20214;-67
2022/03/20 17:06:03;;;;;;;12.97;6.50;;;;;;;10.03;33.37;103276.97;10542442;28;20223;-68
2022/03/20 17:11:07;;;;;;;14.73;7.77;;;;;;;10.00;34.38;103280.34;10542225;28;20208;-67
2022/03/20 17:16:12;;;;;;;17.03;7.87;;;;;;;9.86;36.00;103281.50;10541986;28;20676;-66
2022/03/20 17:21:17;;;;;;;13.97;6.13;;;;;;;9.72;34.50;103284.38;10199817;28;10000307;-68
2022/03/20 17:26:20;;;;;;;11.83;6.17;;;;;;;9.65;34.80;103288.44;10583686;28;20218;-69
2022/03/20 17:31:24;;;;;;;14.60;7.23;;;;;;;9.57;35.95;103291.53;10583748;28;20207;-68
2022/03/20 17:36:29;;;;;;;13.30;6.97;;;;;;;9.48;35.43;103289.44;10582981;28;20682;-68
2022/03/20 17:41:33;;;;;;;14.07;6.97;;;;;;;9.31;35.53;103290.47;10583224;28;20622;-70
2022/03/20 17:46:36;;;;;;;18.83;7.70;;;;;;;9.19;36.41;103283.06;10582959;28;20230;-69
2022/03/20 17:51:41;;;;;;;12.57;6.77;;;;;;;9.06;36.68;103288.53;10582536;28;20215;-72
2022/03/20 17:56:44;;;;;;;16.60;7.40;;;;;;;8.96;36.93;103288.97;10582671;28;20544;-68
2022/03/20 18:01:48;;;;;;;19.77;7.90;;;;;;;8.85;36.85;103287.59;10564865;28;20230;-70
2022/03/20 18:12:28;;;;;;;20.03;7.90;;;;;;;8.65;38.15;103290.13;10527103;28;20238;-67
2022/03/20 18:17:40;;;;;;;27.40;12.67;;;;;;;8.62;38.51;103292.59;10539640;28;20223;-67
2022/03/20 18:22:47;;;;;;;19.50;8.83;;;;;;;8.45;39.43;103290.94;10539579;28;20215;-69
2022/03/20 18:27:51;;;;;;;16.30;8.90;;;;;;;8.29;40.11;103289.34;10539380;28;20215;-67
2022/03/20 18:32:56;;;;;;;16.50;8.50;;;;;;;8.11;39.68;103297.13;10539060;28;20298;-67
2022/03/20 18:38:03;;;;;;;16.23;8.30;;;;;;;8.10;40.13;103297.94;10539102;28;20235;-68
2022/03/20 18:43:07;;;;;;;15.87;8.23;;;;;;;7.99;40.40;103296.53;10538824;28;20522;-67
2022/03/20 18:48:11;;;;;;;14.77;8.20;;;;;;;7.86;40.95;103304.53;10539034;28;20673;-71
2022/03/20 18:53:15;;;;;;;20.37;10.13;;;;;;;8.00;40.39;103302.59;10538689;28;20716;-71
2022/03/20 18:58:19;;;;;;;17.07;9.00;;;;;;;7.94;39.77;103298.03;10538579;28;20215;-70
2022/03/20 19:03:25;;;;;;;15.20;7.93;;;;;;;7.94;40.24;103295.44;10538565;28;20223;-70
2022/03/20 19:08:31;;;;;;;25.40;10.53;;;;;;;7.91;39.98;103299.56;10538632;28;20292;-67
2022/03/20 19:13:34;;;;;;;18.13;10.27;;;;;;;7.66;40.49;103301.81;10538294;28;20280;-70
2022/03/20 19:18:38;;;;;;;22.63;8.80;;;;;;;7.65;42.64;103310.34;10546354;28;20219;-71
2022/03/20 19:23:43;;;;;;;17.60;8.80;;;;;;;7.50;41.96;103312.19;10578389;28;20301;-67
2022/03/20 19:28:48;;;;;;;19.10;9.87;;;;;;;7.50;41.39;103307.91;10588721;28;20305;-67
2022/03/20 19:39:53;;;;;;;18.73;10.53;;;;;;;7.40;41.49;103316.03;10588480;28;20656;-68
2022/03/20 19:44:38;;;;;;;33.33;13.30;;;;;;;6.89;44.31;103315.94;10588253;28;20211;-66
2022/03/20 19:49:41;;;;;;;28.13;15.20;;;;;;;6.68;45.91;103326.00;10587655;28;20218;-67
2022/03/20 19:54:46;;;;;;;32.03;14.27;;;;;;;6.53;47.43;103322.63;10587636;28;20211;-67
2022/03/20 19:59:49;;;;;;;32.57;15.30;;;;;;;6.33;48.43;103330.09;10587340;28;20275;-70
2022/03/20 20:04:53;;;;;;;34.87;17.43;;;;;;;6.25;48.16;103319.34;10587126;28;20218;-67
2022/03/20 20:09:59;;;;;;;41.20;19.20;;;;;;;6.02;49.88;103316.31;10587026;28;20221;-69
2022/03/20 20:15:03;;;;;;;40.30;18.93;;;;;;;5.98;49.55;103310.09;10586830;28;20226;-68
2022/03/20 20:20:09;;;;;;;38.17;18.60;;;;;;;5.89;50.41;103314.72;10585152;28;20235;-67
2022/03/20 20:25:14;;;;;;;35.87;18.53;;;;;;;5.74;50.69;103307.00;10544233;28;20215;-69
2022/03/20 20:30:17;;;;;;;41.50;18.37;;;;;;;5.75;51.06;103305.31;10543230;28;20229;-70
2022/03/20 20:35:20;;;;;;;41.27;19.87;;;;;;;5.63;51.50;103307.19;10543798;28;20657;-68
2022/03/20 20:40:25;;;;;;;44.73;21.67;;;;;;;5.46;51.97;103305.34;10543222;28;20239;-69
2022/03/20 20:45:29;;;;;;;43.37;19.70;;;;;;;5.40;52.85;103308.44;10543080;28;20234;-70
2022/03/20 20:50:33;;;;;;;46.80;20.43;;;;;;;5.19;54.05;103308.88;10543279;28;20215;-69
2022/03/20 20:55:38;;;;;;;44.87;20.43;;;;;;;5.15;54.05;103306.91;10542736;28;20216;-71
2022/03/20 21:00:41;;;;;;;41.47;20.20;;;;;;;5.10;54.56;103301.50;10542820;28;20724;-70
2022/03/20 21:05:44;;;;;;;38.57;21.57;;;;;;;5.03;54.59;103311.34;10542686;28;20231;-66
2022/03/20 21:10:58;;;;;;;41.93;22.10;;;;;;;4.81;55.07;103310.88;10542077;28;20219;-69
2022/03/20 21:16:03;;;;;;;45.20;21.13;;;;;;;4.81;55.20;103303.16;10541869;28;20226;-71
2022/03/20 21:21:07;;;;;;;47.67;22.93;;;;;;;4.69;55.13;103300.72;10545138;28;20302;-66
2022/03/20 21:26:12;;;;;;;45.83;22.83;;;;;;;4.51;56.12;103300.50;10544820;28;20219;-67
2022/03/20 21:31:15;;;;;;;50.60;22.77;;;;;;;4.58;56.59;103296.59;10544513;28;20664;-71
2022/03/20 21:36:20;;;;;;;49.50;22.07;;;;;;;4.44;56.29;103293.19;10544108;28;20223;-66
2022/03/20 21:41:25;;;;;;;51.73;22.93;;;;;;;4.48;54.07;103289.13;10543274;28;20219;-67
2022/03/20 21:46:28;;;;;;;45.77;21.20;;;;;;;4.22;57.48;103294.34;10543889;28;20203;-66
2022/03/20 21:51:32;;;;;;;47.97;23.30;;;;;;;4.15;57.56;103294.75;10543681;28;20215;-69
2022/03/20 21:56:37;;;;;;;50.20;22.77;;;;;;;4.10;58.71;103283.28;10543613;28;20253;-70
2022/03/20 22:01:40;;;;;;;49.63;22.47;;;;;;;4.09;58.58;103281.53;10543471;28;20527;-68
2022/03/20 22:06:44;;;;;;;56.87;25.37;;;;;;;4.14;58.11;103285.28;10543545;28;20210;-68
2022/03/20 22:11:48;;;;;;;42.53;21.43;;;;;;;3.86;58.55;103289.44;10540713;28;20221;-66
2022/03/20 22:16:52;;;;;;;47.93;23.00;;;;;;;3.73;60.04;103299.75;10540103;28;20219;-67
2022/03/20 22:21:56;;;;;;;54.23;23.90;;;;;;;3.52;60.94;103294.97;10539894;28;20340;-62
2022/03/20 22:27:01;;;;;;;55.07;23.30;;;;;;;3.58;60.61;103294.50;10539631;28;20256;-67
2022/03/20 22:32:06;;;;;;;43.47;22.73;;;;;;;3.63;60.41;103299.91;10539756;28;20373;-70
2022/03/20 22:42:31;;;;;;;46.13;22.67;;;;;;;3.56;59.79;103306.34;10539317;28;20187;-69
2022/03/20 22:47:34;;;;;;;50.20;23.90;;;;;;;3.45;60.97;103307.34;10539206;28;20201;-66
2022/03/20 22:52:39;;;;;;;47.93;22.27;;;;;;;3.40;61.38;103309.56;10538596;28;20202;-67
2022/03/20 22:57:45;;;;;;;51.53;24.40;;;;;;;3.37;61.21;103308.47;10538893;28;20604;-66
2022/03/20 23:02:48;;;;;;;46.13;24.07;;;;;;;3.32;61.75;103309.84;10540920;28;20191;-69
2022/03/20 23:07:54;;;;;;;47.37;23.23;;;;;;;3.18;62.83;103313.19;10541974;28;20209;-67
2022/03/20 23:12:59;;;;;;;45.87;22.83;;;;;;;3.09;63.44;103320.28;10541834;28;20225;-65
2022/03/20 23:18:03;;;;;;;46.53;23.10;;;;;;;2.94;64.03;103319.22;10541659;28;20211;-65
2022/03/20 23:23:09;;;;;;;50.77;22.97;;;;;;;2.83;63.80;103318.50;10541754;28;20191;-67
2022/03/20 23:28:14;;;;;;;53.47;23.40;;;;;;;2.79;64.29;103318.19;10541451;28;20191;-65
2022/03/20 23:33:17;;;;;;;49.50;23.17;;;;;;;2.85;63.81;103311.78;10541936;28;20212;-65
2022/03/20 23:38:21;;;;;;;45.33;22.17;;;;;;;2.77;64.49;103314.63;10541098;28;20238;-68
2022/03/20 23:43:28;;;;;;;47.67;22.97;;;;;;;2.68;64.23;103301.16;10541106;28;20226;-67
2022/03/20 23:48:31;;;;;;;50.37;24.27;;;;;;;2.68;64.52;103303.72;10541119;28;20211;-66
2022/03/20 23:53:34;;;;;;;49.97;25.50;;;;;;;2.63;65.03;103310.22;10541029;28;20217;-66
2022/03/20 23:58:39;;;;;;;46.87;23.53;;;;;;;2.59;65.38;103310.81;10537792;28;20572;-65
